METAR Data
IDs: Format: Raw Decoded Include TAF

Data at: 2201 UTC 02 Aug 2021

EGMD 022150Z AUTO 12006KT 9999 BKN040/// 16/12 Q1015